CheckWX is a tool to help pilots better visualize weather data.  It is not intended as a substitute for an official pre-flight weather briefing.

03:03:29 UTC

KBBG TAF
Branson Airport
Branson, Missouri, USA
KBBG 270152Z 2702/2724 VRB04KT P6SM SCT120

Jan-27@
02:00 UTC

Jan-27 @ 02:00 UTC

Jan-28@
00:00 UTC

Jan-28 @ 00:00 UTC

KBBG 270152Z 2702/2724 VRB04KT P6SM SCT120
Wind
  • Variable at 4 KTS
Cloud Levels
  • Scattered at 12,000' AGL